sensor_id;sensor_type;location;lat;lon;timestamp;pressure;altitude;pressure_sealevel;temperature;humidity
45050;BME280;61798;48.048;-1.928;2023-04-28T00:00:49;100671.78;;;12.96;100.00
45050;BME280;61798;48.048;-1.928;2023-04-28T00:02:55;100666.59;;;12.94;100.00
45050;BME280;61798;48.048;-1.928;2023-04-28T00:05:02;100644.50;;;12.85;100.00
45050;BME280;61798;48.048;-1.928;2023-04-28T00:07:08;100683.16;;;13.05;100.00
45050;BME280;61798;48.048;-1.928;2023-04-28T00:09:15;100684.00;;;13.05;100.00
45050;BME280;61798;48.048;-1.928;2023-04-28T00:11:21;100661.03;;;12.89;100.00
45050;BME280;61798;48.048;-1.928;2023-04-28T00:13:28;100679.25;;;13.00;100.00
45050;BME280;61798;48.048;-1.928;2023-04-28T00:15:34;100650.88;;;12.91;100.00
45050;BME280;61798;48.048;-1.928;2023-04-28T00:17:40;100650.72;;;12.86;100.00
45050;BME280;61798;48.048;-1.928;2023-04-28T00:19:49;100676.56;;;13.00;100.00
45050;BME280;61798;48.048;-1.928;2023-04-28T00:21:55;100644.91;;;12.82;100.00
45050;BME280;61798;48.048;-1.928;2023-04-28T00:24:00;100629.59;;;12.76;100.00
45050;BME280;61798;48.048;-1.928;2023-04-28T00:26:06;100679.84;;;13.09;100.00
45050;BME280;61798;48.048;-1.928;2023-04-28T00:28:13;100670.56;;;13.05;100.00
45050;BME280;61798;48.048;-1.928;2023-04-28T00:30:21;100660.41;;;13.00;100.00
45050;BME280;61798;48.048;-1.928;2023-04-28T00:32:27;100676.53;;;13.07;100.00
45050;BME280;61798;48.048;-1.928;2023-04-28T00:34:33;100668.25;;;13.02;100.00
45050;BME280;61798;48.048;-1.928;2023-04-28T00:36:43;100665.56;;;13.02;100.00
45050;BME280;61798;48.048;-1.928;2023-04-28T00:38:50;100683.78;;;13.07;100.00
45050;BME280;61798;48.048;-1.928;2023-04-28T00:40:56;100678.41;;;13.00;100.00
45050;BME280;61798;48.048;-1.928;2023-04-28T00:43:04;100682.56;;;13.09;100.00
45050;BME280;61798;48.048;-1.928;2023-04-28T00:45:10;100677.97;;;13.10;100.00
45050;BME280;61798;48.048;-1.928;2023-04-28T00:47:17;100681.72;;;13.09;100.00
45050;BME280;61798;48.048;-1.928;2023-04-28T00:49:25;100672.59;;;13.10;100.00
45050;BME280;61798;48.048;-1.928;2023-04-28T00:51:31;100670.75;;;13.04;100.00
45050;BME280;61798;48.048;-1.928;2023-04-28T00:53:39;100656.06;;;12.99;100.00
45050;BME280;61798;48.048;-1.928;2023-04-28T00:55:46;100665.78;;;13.07;100.00
45050;BME280;61798;48.048;-1.928;2023-04-28T00:57:54;100670.97;;;13.09;100.00
45050;BME280;61798;48.048;-1.928;2023-04-28T01:00:02;100662.06;;;13.02;100.00
45050;BME280;61798;48.048;-1.928;2023-04-28T01:02:08;100659.38;;;13.02;100.00
45050;BME280;61798;48.048;-1.928;2023-04-28T01:04:23;100641.59;;;12.94;100.00
45050;BME280;61798;48.048;-1.928;2023-04-28T01:06:29;100665.78;;;13.07;100.00
45050;BME280;61798;48.048;-1.928;2023-04-28T01:08:37;100670.53;;;13.12;100.00
45050;BME280;61798;48.048;-1.928;2023-04-28T01:10:43;100653.19;;;13.01;100.00
45050;BME280;61798;48.048;-1.928;2023-04-28T01:12:49;100669.28;;;13.08;100.00
45050;BME280;61798;48.048;-1.928;2023-04-28T01:14:55;100668.28;;;13.09;100.00
45050;BME280;61798;48.048;-1.928;2023-04-28T01:17:02;100659.97;;;13.10;100.00
45050;BME280;61798;48.048;-1.928;2023-04-28T01:19:24;100657.28;;;13.04;100.00
45050;BME280;61798;48.048;-1.928;2023-04-28T01:21:30;100659.56;;;13.07;100.00
45050;BME280;61798;48.048;-1.928;2023-04-28T01:23:40;100663.91;;;13.08;100.00
45050;BME280;61798;48.048;-1.928;2023-04-28T01:25:45;100668.03;;;13.10;100.00
45050;BME280;61798;48.048;-1.928;2023-04-28T01:27:51;100664.31;;;13.11;100.00
45050;BME280;61798;48.048;-1.928;2023-04-28T01:29:58;100663.50;;;13.11;100.00
45050;BME280;61798;48.048;-1.928;2023-04-28T01:32:04;100652.75;;;13.04;100.00
45050;BME280;61798;48.048;-1.928;2023-04-28T01:34:10;100663.28;;;13.06;100.00
45050;BME280;61798;48.048;-1.928;2023-04-28T01:36:16;100656.47;;;13.03;100.00
45050;BME280;61798;48.048;-1.928;2023-04-28T01:38:23;100628.78;;;12.89;100.00
45050;BME280;61798;48.048;-1.928;2023-04-28T01:40:29;100625.84;;;12.90;100.00
45050;BME280;61798;48.048;-1.928;2023-04-28T01:42:35;100652.31;;;13.07;100.00
45050;BME280;61798;48.048;-1.928;2023-04-28T01:44:42;100642.00;;;13.04;100.00
45050;BME280;61798;48.048;-1.928;2023-04-28T01:46:48;100653.38;;;13.13;100.00
45050;BME280;61798;48.048;-1.928;2023-04-28T01:48:55;100638.69;;;12.95;100.00
45050;BME280;61798;48.048;-1.928;2023-04-28T01:51:01;100645.09;;;13.08;100.00
45050;BME280;61798;48.048;-1.928;2023-04-28T01:53:08;100661.81;;;13.10;100.00
45050;BME280;61798;48.048;-1.928;2023-04-28T01:55:14;100639.50;;;13.03;100.00
45050;BME280;61798;48.048;-1.928;2023-04-28T01:57:20;100663.50;;;13.11;100.00
45050;BME280;61798;48.048;-1.928;2023-04-28T01:59:27;100663.28;;;13.06;100.00
45050;BME280;61798;48.048;-1.928;2023-04-28T02:01:33;100663.09;;;13.07;100.00
45050;BME280;61798;48.048;-1.928;2023-04-28T02:03:40;100634.16;;;12.89;100.00
45050;BME280;61798;48.048;-1.928;2023-04-28T02:05:46;100665.56;;;13.09;100.00
45050;BME280;61798;48.048;-1.928;2023-04-28T02:07:52;100668.69;;;13.13;100.00
45050;BME280;61798;48.048;-1.928;2023-04-28T02:09:59;100663.91;;;13.08;100.00
45050;BME280;61798;48.048;-1.928;2023-04-28T02:12:05;100666.19;;;13.11;100.00
45050;BME280;61798;48.048;-1.928;2023-04-28T02:14:11;100663.09;;;13.07;100.00
45050;BME280;61798;48.048;-1.928;2023-04-28T02:16:17;100656.03;;;13.06;100.00
45050;BME280;61798;48.048;-1.928;2023-04-28T02:18:24;100667.84;;;13.12;100.00
45050;BME280;61798;48.048;-1.928;2023-04-28T02:20:30;100638.06;;;12.93;100.00
45050;BME280;61798;48.048;-1.928;2023-04-28T02:22:36;100634.16;;;12.89;100.00
45050;BME280;61798;48.048;-1.928;2023-04-28T02:24:42;100616.56;;;12.79;100.00
45050;BME280;61798;48.048;-1.928;2023-04-28T02:26:49;100658.94;;;13.11;100.00
45050;BME280;61798;48.048;-1.928;2023-04-28T02:28:55;100627.50;;;12.92;100.00
45050;BME280;61798;48.048;-1.928;2023-04-28T02:31:09;100636.41;;;12.99;100.00
45050;BME280;61798;48.048;-1.928;2023-04-28T02:33:15;100640.13;;;13.05;100.00
45050;BME280;61798;48.048;-1.928;2023-04-28T02:35:21;100647.78;;;13.08;100.00
45050;BME280;61798;48.048;-1.928;2023-04-28T02:37:28;100612.84;;;12.87;100.00
45050;BME280;61798;48.048;-1.928;2023-04-28T02:39:34;100623.56;;;12.94;100.00
45050;BME280;61798;48.048;-1.928;2023-04-28T02:41:40;100631.44;;;12.96;100.00
45050;BME280;61798;48.048;-1.928;2023-04-28T02:43:47;100616.38;;;12.81;100.00
45050;BME280;61798;48.048;-1.928;2023-04-28T02:45:53;100657.50;;;13.09;100.00
45050;BME280;61798;48.048;-1.928;2023-04-28T02:48:00;100640.53;;;12.95;100.00
45050;BME280;61798;48.048;-1.928;2023-04-28T02:50:10;100660.41;;;13.07;100.00
45050;BME280;61798;48.048;-1.928;2023-04-28T02:52:16;100660.19;;;13.09;100.00
45050;BME280;61798;48.048;-1.928;2023-04-28T02:54:23;100654.41;;;13.05;100.00
45050;BME280;61798;48.048;-1.928;2023-04-28T02:56:33;100629.81;;;12.81;100.00
45050;BME280;61798;48.048;-1.928;2023-04-28T02:58:40;100654.81;;;13.09;100.00
45050;BME280;61798;48.048;-1.928;2023-04-28T03:00:46;100660.19;;;13.09;100.00
45050;BME280;61798;48.048;-1.928;2023-04-28T03:02:52;100639.31;;;12.97;100.00
45050;BME280;61798;48.048;-1.928;2023-04-28T03:05:00;100649.03;;;13.05;100.00
45050;BME280;61798;48.048;-1.928;2023-04-28T03:07:06;100643.63;;;12.98;100.00
45050;BME280;61798;48.048;-1.928;2023-04-28T03:09:14;100650.47;;;13.08;100.00
45050;BME280;61798;48.048;-1.928;2023-04-28T03:11:20;100657.91;;;13.06;100.00
45050;BME280;61798;48.048;-1.928;2023-04-28T03:13:26;100652.75;;;13.04;100.00
45050;BME280;61798;48.048;-1.928;2023-04-28T03:15:32;100656.88;;;13.07;100.00
45050;BME280;61798;48.048;-1.928;2023-04-28T03:17:38;100609.94;;;12.75;100.00
45050;BME280;61798;48.048;-1.928;2023-04-28T03:19:47;100618.22;;;12.81;100.00
45050;BME280;61798;48.048;-1.928;2023-04-28T03:21:53;100625.03;;;12.90;100.00
45050;BME280;61798;48.048;-1.928;2023-04-28T03:24:00;100650.25;;;13.03;100.00
45050;BME280;61798;48.048;-1.928;2023-04-28T03:26:06;100629.59;;;12.83;100.00
45050;BME280;61798;48.048;-1.928;2023-04-28T03:28:13;100663.91;;;13.08;100.00
45050;BME280;61798;48.048;-1.928;2023-04-28T03:30:20;100620.28;;;12.78;100.00
45050;BME280;61798;48.048;-1.928;2023-04-28T03:32:26;100647.16;;;12.99;100.00
45050;BME280;61798;48.048;-1.928;2023-04-28T03:34:32;100658.94;;;12.98;100.00
45050;BME280;61798;48.048;-1.928;2023-04-28T03:36:38;100625.47;;;12.80;100.00
45050;BME280;61798;48.048;-1.928;2023-04-28T03:38:46;100667.84;;;13.05;100.00
45050;BME280;61798;48.048;-1.928;2023-04-28T03:40:51;100663.94;;;13.01;100.00
45050;BME280;61798;48.048;-1.928;2023-04-28T03:42:59;100631.25;;;12.84;100.00
45050;BME280;61798;48.048;-1.928;2023-04-28T03:45:05;100655.47;;;12.97;100.00
45050;BME280;61798;48.048;-1.928;2023-04-28T03:47:11;100658.16;;;12.97;100.00
45050;BME280;61798;48.048;-1.928;2023-04-28T03:49:18;100666.63;;;13.01;100.00
45050;BME280;61798;48.048;-1.928;2023-04-28T03:51:24;100670.16;;;13.02;100.00
45050;BME280;61798;48.048;-1.928;2023-04-28T03:53:31;100637.66;;;12.83;100.00
45050;BME280;61798;48.048;-1.928;2023-04-28T03:55:37;100653.78;;;12.96;100.00
45050;BME280;61798;48.048;-1.928;2023-04-28T03:57:43;100660.41;;;13.00;100.00
45050;BME280;61798;48.048;-1.928;2023-04-28T03:59:50;100657.72;;;13.00;100.00
45050;BME280;61798;48.048;-1.928;2023-04-28T04:01:56;100657.91;;;12.99;100.00
45050;BME280;61798;48.048;-1.928;2023-04-28T04:04:04;100668.06;;;13.04;100.00
45050;BME280;61798;48.048;-1.928;2023-04-28T04:06:09;100641.78;;;12.78;100.00
45050;BME280;61798;48.048;-1.928;2023-04-28T04:08:17;100660.19;;;12.95;100.00
45050;BME280;61798;48.048;-1.928;2023-04-28T04:10:23;100642.00;;;12.84;100.00
45050;BME280;61798;48.048;-1.928;2023-04-28T04:12:28;100661.44;;;12.99;100.00
45050;BME280;61798;48.048;-1.928;2023-04-28T04:14:36;100649.88;;;12.85;100.00
45050;BME280;61798;48.048;-1.928;2023-04-28T04:16:42;100679.25;;;13.00;100.00
45050;BME280;61798;48.048;-1.928;2023-04-28T04:18:49;100652.34;;;12.87;100.00
45050;BME280;61798;48.048;-1.928;2023-04-28T04:20:54;100664.13;;;12.99;100.00
45050;BME280;61798;48.048;-1.928;2023-04-28T04:23:01;100666.63;;;13.01;100.00
45050;BME280;61798;48.048;-1.928;2023-04-28T04:25:09;100672.19;;;12.99;100.00
45050;BME280;61798;48.048;-1.928;2023-04-28T04:27:15;100665.16;;;12.98;100.00
45050;BME280;61798;48.048;-1.928;2023-04-28T04:29:22;100678.22;;;13.02;100.00
45050;BME280;61798;48.048;-1.928;2023-04-28T04:31:28;100658.53;;;12.94;100.00
45050;BME280;61798;48.048;-1.928;2023-04-28T04:33:35;100671.59;;;12.97;100.00
45050;BME280;61798;48.048;-1.928;2023-04-28T04:35:42;100640.16;;;12.77;100.00
45050;BME280;61798;48.048;-1.928;2023-04-28T04:37:48;100649.88;;;12.85;100.00
45050;BME280;61798;48.048;-1.928;2023-04-28T04:39:55;100636.03;;;12.82;100.00
45050;BME280;61798;48.048;-1.928;2023-04-28T04:42:01;100656.09;;;12.86;100.00
45050;BME280;61798;48.048;-1.928;2023-04-28T04:44:09;100669.94;;;12.96;100.00
45050;BME280;61798;48.048;-1.928;2023-04-28T04:46:15;100662.47;;;12.98;100.00
45050;BME280;61798;48.048;-1.928;2023-04-28T04:48:20;100670.75;;;12.97;100.00
45050;BME280;61798;48.048;-1.928;2023-04-28T04:50:28;100658.13;;;12.90;100.00
45050;BME280;61798;48.048;-1.928;2023-04-28T04:52:34;100648.63;;;12.81;100.00
45050;BME280;61798;48.048;-1.928;2023-04-28T04:54:41;100656.91;;;12.93;100.00
45050;BME280;61798;48.048;-1.928;2023-04-28T04:56:47;100661.88;;;12.96;100.00
45050;BME280;61798;48.048;-1.928;2023-04-28T04:58:54;100650.72;;;12.86;100.00
45050;BME280;61798;48.048;-1.928;2023-04-28T05:01:00;100669.94;;;12.89;100.00
45050;BME280;61798;48.048;-1.928;2023-04-28T05:03:05;100662.28;;;12.86;100.00
45050;BME280;61798;48.048;-1.928;2023-04-28T05:05:13;100649.03;;;12.78;100.00
45050;BME280;61798;48.048;-1.928;2023-04-28T05:07:19;100674.69;;;12.94;100.00
45050;BME280;61798;48.048;-1.928;2023-04-28T05:09:26;100678.81;;;12.90;100.00
45050;BME280;61798;48.048;-1.928;2023-04-28T05:11:32;100669.31;;;12.87;100.00
45050;BME280;61798;48.048;-1.928;2023-04-28T05:13:38;100654.22;;;12.79;100.00
45050;BME280;61798;48.048;-1.928;2023-04-28T05:15:46;100646.16;;;12.73;100.00
45050;BME280;61798;48.048;-1.928;2023-04-28T05:17:52;100644.72;;;12.77;100.00
45050;BME280;61798;48.048;-1.928;2023-04-28T05:19:59;100671.81;;;12.89;100.00
45050;BME280;61798;48.048;-1.928;2023-04-28T05:22:05;100675.53;;;12.88;100.00
45050;BME280;61798;48.048;-1.928;2023-04-28T05:24:13;100692.28;;;12.97;100.00
45050;BME280;61798;48.048;-1.928;2023-04-28T05:26:19;100692.06;;;12.98;100.00
45050;BME280;61798;48.048;-1.928;2023-04-28T05:28:25;100653.59;;;12.77;100.00
45050;BME280;61798;48.048;-1.928;2023-04-28T05:30:32;100691.03;;;12.99;100.00
45050;BME280;61798;48.048;-1.928;2023-04-28T05:32:38;100669.53;;;12.86;100.00
45050;BME280;61798;48.048;-1.928;2023-04-28T05:34:45;100699.72;;;13.02;100.00
45050;BME280;61798;48.048;-1.928;2023-04-28T05:36:51;100694.13;;;13.03;100.00
45050;BME280;61798;48.048;-1.928;2023-04-28T05:38:58;100701.16;;;13.04;100.00
45050;BME280;61798;48.048;-1.928;2023-04-28T05:41:05;100693.72;;;12.99;100.00
45050;BME280;61798;48.048;-1.928;2023-04-28T05:43:12;100702.59;;;13.07;100.00
45050;BME280;61798;48.048;-1.928;2023-04-28T05:45:22;100690.41;;;13.04;100.00
45050;BME280;61798;48.048;-1.928;2023-04-28T05:47:29;100697.03;;;13.08;100.00
45050;BME280;61798;48.048;-1.928;2023-04-28T05:49:37;100694.13;;;13.03;100.00
45050;BME280;61798;48.048;-1.928;2023-04-28T05:51:44;100701.16;;;13.11;100.00
45050;BME280;61798;48.048;-1.928;2023-04-28T05:53:53;100693.53;;;13.01;100.00
45050;BME280;61798;48.048;-1.928;2023-04-28T05:56:00;100711.50;;;13.14;100.00
45050;BME280;61798;48.048;-1.928;2023-04-28T05:58:06;100703.63;;;13.06;100.00
45050;BME280;61798;48.048;-1.928;2023-04-28T06:00:13;100705.69;;;13.10;100.00
45050;BME280;61798;48.048;-1.928;2023-04-28T06:02:20;100720.19;;;13.16;100.00
45050;BME280;61798;48.048;-1.928;2023-04-28T06:04:26;100723.50;;;13.11;100.00
45050;BME280;61798;48.048;-1.928;2023-04-28T06:06:32;100726.00;;;13.13;100.00
45050;BME280;61798;48.048;-1.928;2023-04-28T06:08:40;100716.88;;;13.07;100.00
45050;BME280;61798;48.048;-1.928;2023-04-28T06:10:46;100703.66;;;12.92;100.00
45050;BME280;61798;48.048;-1.928;2023-04-28T06:12:53;100731.19;;;13.21;100.00
45050;BME280;61798;48.048;-1.928;2023-04-28T06:14:59;100732.63;;;13.17;100.00
45050;BME280;61798;48.048;-1.928;2023-04-28T06:17:05;100741.09;;;13.21;100.00
45050;BME280;61798;48.048;-1.928;2023-04-28T06:19:13;100727.03;;;13.19;100.00
45050;BME280;61798;48.048;-1.928;2023-04-28T06:21:20;100733.88;;;13.21;100.00
45050;BME280;61798;48.048;-1.928;2023-04-28T06:23:28;100712.75;;;13.11;100.00
45050;BME280;61798;48.048;-1.928;2023-04-28T06:25:34;100724.56;;;13.17;100.00
45050;BME280;61798;48.048;-1.928;2023-04-28T06:27:41;100738.41;;;13.21;100.00
45050;BME280;61798;48.048;-1.928;2023-04-28T06:29:48;100741.94;;;13.28;100.00
45050;BME280;61798;48.048;-1.928;2023-04-28T06:31:54;100733.84;;;13.28;100.00
45050;BME280;61798;48.048;-1.928;2023-04-28T06:34:03;100743.16;;;13.32;100.00
45050;BME280;61798;48.048;-1.928;2023-04-28T06:36:09;100727.25;;;13.17;100.00
45050;BME280;61798;48.048;-1.928;2023-04-28T06:38:19;100746.28;;;13.29;100.00
45050;BME280;61798;48.048;-1.928;2023-04-28T06:40:25;100741.50;;;13.31;100.00
45050;BME280;61798;48.048;-1.928;2023-04-28T06:42:32;100756.59;;;13.39;100.00
45050;BME280;61798;48.048;-1.928;2023-04-28T06:44:39;100730.75;;;13.31;100.00
45050;BME280;61798;48.048;-1.928;2023-04-28T06:46:46;100731.34;;;13.47;100.00
45050;BME280;61798;48.048;-1.928;2023-04-28T06:48:53;100724.94;;;13.41;100.00
45050;BME280;61798;48.048;-1.928;2023-04-28T06:50:59;100737.53;;;13.54;100.00
45050;BME280;61798;48.048;-1.928;2023-04-28T06:53:07;100723.47;;;13.46;100.00
45050;BME280;61798;48.048;-1.928;2023-04-28T06:55:15;100738.75;;;13.66;100.00
45050;BME280;61798;48.048;-1.928;2023-04-28T06:57:23;100724.06;;;13.54;100.00
45050;BME280;61798;48.048;-1.928;2023-04-28T06:59:30;100730.06;;;13.50;100.00
45050;BME280;61798;48.048;-1.928;2023-04-28T07:01:37;100732.97;;;13.69;100.00
45050;BME280;61798;48.048;-1.928;2023-04-28T07:03:44;100738.16;;;13.63;100.00
45050;BME280;61798;48.048;-1.928;2023-04-28T07:05:52;100733.81;;;13.62;100.00
45050;BME280;61798;48.048;-1.928;2023-04-28T07:07:59;100736.06;;;13.72;100.00
45050;BME280;61798;48.048;-1.928;2023-04-28T07:10:07;100729.22;;;13.70;100.00
45050;BME280;61798;48.048;-1.928;2023-04-28T07:12:14;100726.13;;;13.73;100.00
45050;BME280;61798;48.048;-1.928;2023-04-28T07:14:21;100716.38;;;13.72;100.00
45050;BME280;61798;48.048;-1.928;2023-04-28T07:16:29;100732.09;;;13.82;100.00
45050;BME280;61798;48.048;-1.928;2023-04-28T07:18:36;100730.22;;;13.82;100.00
45050;BME280;61798;48.048;-1.928;2023-04-28T07:20:43;100692.34;;;13.70;100.00
45050;BME280;61798;48.048;-1.928;2023-04-28T07:22:51;100729.75;;;13.99;100.00
45050;BME280;61798;48.048;-1.928;2023-04-28T07:24:58;100696.91;;;13.77;100.00
45050;BME280;61798;48.048;-1.928;2023-04-28T07:27:05;100720.91;;;13.78;100.00
45050;BME280;61798;48.048;-1.928;2023-04-28T07:29:12;100675.84;;;13.53;100.00
45050;BME280;61798;48.048;-1.928;2023-04-28T07:31:21;100720.91;;;13.85;100.00
45050;BME280;61798;48.048;-1.928;2023-04-28T07:33:28;100701.50;;;13.69;100.00
45050;BME280;61798;48.048;-1.928;2023-04-28T07:35:35;100716.59;;;13.77;100.00
45050;BME280;61798;48.048;-1.928;2023-04-28T07:37:43;100717.59;;;13.83;100.00
45050;BME280;61798;48.048;-1.928;2023-04-28T07:39:50;100715.94;;;13.89;100.00
45050;BME280;61798;48.048;-1.928;2023-04-28T07:41:58;100701.81;;;13.87;100.00
45050;BME280;61798;48.048;-1.928;2023-04-28T07:44:05;100703.66;;;14.00;100.00
45050;BME280;61798;48.048;-1.928;2023-04-28T07:46:14;100718.78;;;14.01;100.00
45050;BME280;61798;48.048;-1.928;2023-04-28T07:48:21;100700.59;;;13.89;100.00
45050;BME280;61798;48.048;-1.928;2023-04-28T07:50:28;100724.13;;;14.08;100.00
45050;BME280;61798;48.048;-1.928;2023-04-28T07:52:37;100713.34;;;14.08;100.00
45050;BME280;61798;48.048;-1.928;2023-04-28T07:54:48;100701.53;;;14.09;100.00
45050;BME280;61798;48.048;-1.928;2023-04-28T07:56:56;100701.28;;;14.17;100.00
45050;BME280;61798;48.048;-1.928;2023-04-28T07:59:06;100718.25;;;14.24;100.00
45050;BME280;61798;48.048;-1.928;2023-04-28T08:01:13;100719.22;;;14.30;100.00
45050;BME280;61798;48.048;-1.928;2023-04-28T08:03:21;100725.47;;;14.31;100.00
45050;BME280;61798;48.048;-1.928;2023-04-28T08:05:28;100684.44;;;14.22;100.00
45050;BME280;61798;48.048;-1.928;2023-04-28T08:07:36;100711.13;;;14.37;100.00
45050;BME280;61798;48.048;-1.928;2023-04-28T08:09:41;100679.56;;;14.44;100.00
45050;BME280;61798;48.048;-1.928;2023-04-28T08:11:51;100709.28;;;14.63;100.00
45050;BME280;61798;48.048;-1.928;2023-04-28T08:13:58;100671.78;;;14.29;100.00
45050;BME280;61798;48.048;-1.928;2023-04-28T08:16:08;100685.81;;;14.38;100.00
45050;BME280;61798;48.048;-1.928;2023-04-28T08:18:15;100711.28;;;14.42;100.00
45050;BME280;61798;48.048;-1.928;2023-04-28T08:20:22;100701.84;;;14.58;100.00
45050;BME280;61798;48.048;-1.928;2023-04-28T08:22:28;100705.56;;;14.64;100.00
45050;BME280;61798;48.048;-1.928;2023-04-28T08:24:35;100700.19;;;14.57;100.00
45050;BME280;61798;48.048;-1.928;2023-04-28T08:26:42;100690.50;;;14.49;100.00
45050;BME280;61798;48.048;-1.928;2023-04-28T08:28:49;100674.50;;;14.55;100.00
45050;BME280;61798;48.048;-1.928;2023-04-28T08:30:55;100703.75;;;14.84;100.00
45050;BME280;61798;48.048;-1.928;2023-04-28T08:33:04;100678.53;;;14.71;100.00
45050;BME280;61798;48.048;-1.928;2023-04-28T08:35:11;100696.63;;;14.96;100.00
45050;BME280;61798;48.048;-1.928;2023-04-28T08:37:18;100714.81;;;15.27;100.00
45050;BME280;61798;48.048;-1.928;2023-04-28T08:39:26;100683.78;;;15.36;100.00
45050;BME280;61798;48.048;-1.928;2023-04-28T08:41:37;100707.91;;;15.50;100.00
45050;BME280;61798;48.048;-1.928;2023-04-28T08:43:44;100704.19;;;15.32;100.00
45050;BME280;61798;48.048;-1.928;2023-04-28T08:45:51;100699.41;;;15.08;100.00
45050;BME280;61798;48.048;-1.928;2023-04-28T08:48:00;100702.03;;;15.15;100.00
45050;BME280;61798;48.048;-1.928;2023-04-28T08:50:11;100708.28;;;15.35;100.00
45050;BME280;61798;48.048;-1.928;2023-04-28T08:52:22;100687.91;;;15.39;100.00
45050;BME280;61798;48.048;-1.928;2023-04-28T08:54:35;100705.00;;;15.51;100.00
45050;BME280;61798;48.048;-1.928;2023-04-28T08:56:41;100705.97;;;15.57;100.00
45050;BME280;61798;48.048;-1.928;2023-04-28T08:58:52;100669.13;;;15.25;100.00
45050;BME280;61798;48.048;-1.928;2023-04-28T09:01:00;100706.44;;;15.54;100.00
45050;BME280;61798;48.048;-1.928;2023-04-28T09:03:10;100679.13;;;15.43;100.00
45050;BME280;61798;48.048;-1.928;2023-04-28T09:05:17;100706.44;;;15.54;100.00
45050;BME280;61798;48.048;-1.928;2023-04-28T09:07:25;100717.59;;;15.58;100.00
45050;BME280;61798;48.048;-1.928;2023-04-28T09:09:32;100700.50;;;15.45;100.00
45050;BME280;61798;48.048;-1.928;2023-04-28T09:11:50;100710.31;;;15.39;100.00
45050;BME280;61798;48.048;-1.928;2023-04-28T09:14:11;100708.75;;;15.50;100.00
45050;BME280;61798;48.048;-1.928;2023-04-28T09:16:18;100710.03;;;15.67;100.00
45050;BME280;61798;48.048;-1.928;2023-04-28T09:18:26;100707.16;;;15.61;100.00
45050;BME280;61798;48.048;-1.928;2023-04-28T09:20:34;100715.66;;;15.84;100.00
45050;BME280;61798;48.048;-1.928;2023-04-28T09:22:42;100702.91;;;15.72;100.00
45050;BME280;61798;48.048;-1.928;2023-04-28T09:24:49;100714.59;;;15.66;100.00
45050;BME280;61798;48.048;-1.928;2023-04-28T09:27:00;100670.63;;;15.21;100.00
45050;BME280;61798;48.048;-1.928;2023-04-28T09:29:11;100720.47;;;15.44;100.00
45050;BME280;61798;48.048;-1.928;2023-04-28T09:31:23;100725.56;;;15.52;100.00
45050;BME280;61798;48.048;-1.928;2023-04-28T09:33:31;100676.63;;;15.42;100.00
45050;BME280;61798;48.048;-1.928;2023-04-28T09:35:40;100721.66;;;15.86;100.00
45050;BME280;61798;48.048;-1.928;2023-04-28T09:37:57;100721.78;;;15.53;100.00
45050;BME280;61798;48.048;-1.928;2023-04-28T09:40:08;100733.50;;;15.47;100.00
45050;BME280;61798;48.048;-1.928;2023-04-28T09:44:52;100729.03;;;15.60;100.00
45050;BME280;61798;48.048;-1.928;2023-04-28T09:46:57;100724.28;;;15.55;100.00
45050;BME280;61798;48.048;-1.928;2023-04-28T09:49:04;100721.28;;;15.63;100.00
45050;BME280;61798;48.048;-1.928;2023-04-28T09:51:19;100717.00;;;15.74;100.00
45050;BME280;61798;48.048;-1.928;2023-04-28T09:53:27;100714.81;;;15.83;100.00
45050;BME280;61798;48.048;-1.928;2023-04-28T09:55:35;100685.28;;;15.51;100.00
45050;BME280;61798;48.048;-1.928;2023-04-28T09:57:45;100694.09;;;15.77;100.00
45050;BME280;61798;48.048;-1.928;2023-04-28T09:59:54;100705.28;;;15.81;100.00
45050;BME280;61798;48.048;-1.928;2023-04-28T10:02:04;100714.81;;;15.83;100.00
45050;BME280;61798;48.048;-1.928;2023-04-28T10:04:13;100720.91;;;15.79;100.00
45050;BME280;61798;48.048;-1.928;2023-04-28T10:06:20;100716.84;;;15.88;100.00
45050;BME280;61798;48.048;-1.928;2023-04-28T10:08:27;100713.91;;;15.90;100.00
45050;BME280;61798;48.048;-1.928;2023-04-28T10:10:36;100718.34;;;15.84;100.00
45050;BME280;61798;48.048;-1.928;2023-04-28T10:12:44;100738.53;;;16.00;100.00
45050;BME280;61798;48.048;-1.928;2023-04-28T10:14:51;100730.88;;;15.97;100.00
45050;BME280;61798;48.048;-1.928;2023-04-28T10:17:03;100726.59;;;15.89;100.00
45050;BME280;61798;48.048;-1.928;2023-04-28T10:19:11;100726.16;;;15.73;100.00
45050;BME280;61798;48.048;-1.928;2023-04-28T10:21:20;100722.31;;;15.81;100.00
45050;BME280;61798;48.048;-1.928;2023-04-28T10:26:10;100756.63;;;16.00;100.00
45050;BME280;61798;48.048;-1.928;2023-04-28T10:28:17;100740.09;;;15.89;100.00
45050;BME280;61798;48.048;-1.928;2023-04-28T10:30:26;100741.47;;;15.80;100.00
45050;BME280;61798;48.048;-1.928;2023-04-28T10:32:36;100745.28;;;15.91;100.00
45050;BME280;61798;48.048;-1.928;2023-04-28T10:34:43;100746.25;;;15.96;100.00
45050;BME280;61798;48.048;-1.928;2023-04-28T10:36:52;100752.06;;;16.00;100.00
45050;BME280;61798;48.048;-1.928;2023-04-28T10:39:10;100736.34;;;16.09;100.00
45050;BME280;61798;48.048;-1.928;2023-04-28T10:41:41;100742.69;;;15.84;100.00
45050;BME280;61798;48.048;-1.928;2023-04-28T10:43:48;100733.44;;;16.11;100.00
45050;BME280;61798;48.048;-1.928;2023-04-28T10:46:02;100738.78;;;16.30;100.00
45050;BME280;61798;48.048;-1.928;2023-04-28T10:48:11;100733.28;;;16.36;100.00
45050;BME280;61798;48.048;-1.928;2023-04-28T10:50:18;100747.16;;;16.71;100.00
45050;BME280;61798;48.048;-1.928;2023-04-28T10:57:31;100732.88;;;16.21;100.00
45050;BME280;61798;48.048;-1.928;2023-04-28T11:00:28;100755.28;;;16.71;100.00